Inicio METAR Ruta Wind Satelite

Informe Meteorológico

Fecha: 2020/07/02 01:56:45 Local
2020.07.02 06:56 UTC


Estado: VENCIDO
Operación:VFR
Barrancabermeja / Yariguies, Colombia (SKEJ) 07-01N 073-48W 134M
2020.07.01 2000 UTC
Wind: from the SE (140 degrees) at 5 MPH (4 KT):0
Visibility: greater than 7 mile(s):0
Sky conditions: partly cloudy
Temperature: 87 F (31 C)
Heat index: 93.9 F (34.4 C):1
Dew Point: 73 F (23 C)
Relative Humidity: 62%
Pressure (altimeter): 29.74 in. Hg (1007 hPa)
ob: SKEJ 012000Z 14004KT 9999 FEW020 SCT200 31/23 A2974
cycle: 20

SKEJ 011900Z VRB02KT 9999 FEW017 SCT200 30/22 A2977
SKEJ 011800Z 24005KT 9999 FEW017 SCT200 29/24 A2980
SKEJ 011700Z 29004KT 9999 FEW017 BKN200 28/23 A2983
SKEJ 011600Z 26004KT 9999 FEW015 BKN200 26/24 A2984
SKEJ 011500Z 28004KT 9999 SCT015 BKN200 26/25 A2985